Chiang Mai, Thailand
Current Conditions -  °F | °C
As of 11:00 PM on Thursday 23 Oct 2014 (Local Time) from VTCC Reporting Station
Light Rain Light Rain  
Wind Chill: 75°   Ceiling: 3200
Heat Index: 75°   Visibility: 5mi
Dew Point: 72°   Wind: 6mph
Humidity: 89%   Direction: 10°N
Pressure: 30"   Gusts: NA
Location:  18.8°N, 98.98°E
Report Text: VTCC 231600Z 01005KT 8000 -RA FEW018 BKN032 24/22 Q1016 A3000 NOSIG
Loading
Personal Weather Stations






























Interactive Weather Map
Tropical Storm Tracking
New forecast layout! Learn more

10-Day Weather Forecast

Advertisements
Track Severe Weather on mobile